sensor_id;sensor_type;location;lat;lon;timestamp;P1;durP1;ratioP1;P2;durP2;ratioP2
31126;SDS011;17775;57.948;12.514;2022-10-01T00:00:50;1.77;;;1.35;;
31126;SDS011;17775;57.948;12.514;2022-10-01T00:03:18;2.10;;;1.30;;
31126;SDS011;17775;57.948;12.514;2022-10-01T00:05:44;5.75;;;1.77;;
31126;SDS011;17775;57.948;12.514;2022-10-01T00:08:14;4.18;;;2.03;;
31126;SDS011;17775;57.948;12.514;2022-10-01T00:10:42;4.30;;;1.63;;
31126;SDS011;17775;57.948;12.514;2022-10-01T00:13:09;4.85;;;1.80;;
31126;SDS011;17775;57.948;12.514;2022-10-01T00:15:39;4.63;;;2.10;;
31126;SDS011;17775;57.948;12.514;2022-10-01T00:18:06;3.90;;;1.63;;
31126;SDS011;17775;57.948;12.514;2022-10-01T00:20:33;2.63;;;1.67;;
31126;SDS011;17775;57.948;12.514;2022-10-01T00:23:00;2.80;;;1.67;;
31126;SDS011;17775;57.948;12.514;2022-10-01T00:25:26;6.55;;;2.28;;
31126;SDS011;17775;57.948;12.514;2022-10-01T00:27:53;4.43;;;2.28;;
31126;SDS011;17775;57.948;12.514;2022-10-01T00:30:19;7.70;;;2.47;;
31126;SDS011;17775;57.948;12.514;2022-10-01T00:32:46;3.75;;;2.40;;
31126;SDS011;17775;57.948;12.514;2022-10-01T00:35:13;5.05;;;2.40;;
31126;SDS011;17775;57.948;12.514;2022-10-01T00:37:39;5.25;;;2.42;;
31126;SDS011;17775;57.948;12.514;2022-10-01T00:40:07;4.80;;;2.22;;
31126;SDS011;17775;57.948;12.514;2022-10-01T00:42:34;5.32;;;2.40;;
31126;SDS011;17775;57.948;12.514;2022-10-01T00:45:00;5.10;;;2.15;;
31126;SDS011;17775;57.948;12.514;2022-10-01T00:47:28;7.43;;;2.53;;
31126;SDS011;17775;57.948;12.514;2022-10-01T00:50:02;4.72;;;2.53;;
31126;SDS011;17775;57.948;12.514;2022-10-01T00:52:31;4.65;;;2.40;;
31126;SDS011;17775;57.948;12.514;2022-10-01T00:55:12;5.35;;;2.45;;
31126;SDS011;17775;57.948;12.514;2022-10-01T00:57:40;4.57;;;2.00;;
31126;SDS011;17775;57.948;12.514;2022-10-01T01:00:08;5.50;;;2.40;;
31126;SDS011;17775;57.948;12.514;2022-10-01T01:02:35;4.85;;;2.35;;
31126;SDS011;17775;57.948;12.514;2022-10-01T01:05:02;6.80;;;2.55;;
31126;SDS011;17775;57.948;12.514;2022-10-01T01:07:30;4.50;;;2.22;;
31126;SDS011;17775;57.948;12.514;2022-10-01T01:10:02;7.13;;;2.15;;
31126;SDS011;17775;57.948;12.514;2022-10-01T01:12:42;4.90;;;2.20;;
31126;SDS011;17775;57.948;12.514;2022-10-01T01:15:25;4.22;;;2.22;;
31126;SDS011;17775;57.948;12.514;2022-10-01T01:25:29;4.68;;;2.17;;
31126;SDS011;17775;57.948;12.514;2022-10-01T01:30:27;4.15;;;1.90;;
31126;SDS011;17775;57.948;12.514;2022-10-01T01:35:23;7.10;;;2.33;;
31126;SDS011;17775;57.948;12.514;2022-10-01T01:37:51;4.65;;;2.67;;
31126;SDS011;17775;57.948;12.514;2022-10-01T01:40:19;4.93;;;2.08;;
31126;SDS011;17775;57.948;12.514;2022-10-01T01:42:46;5.57;;;2.65;;
31126;SDS011;17775;57.948;12.514;2022-10-01T01:45:15;3.63;;;2.20;;
31126;SDS011;17775;57.948;12.514;2022-10-01T01:47:43;3.67;;;2.28;;
31126;SDS011;17775;57.948;12.514;2022-10-01T01:50:10;6.88;;;2.67;;
31126;SDS011;17775;57.948;12.514;2022-10-01T01:52:38;4.93;;;2.67;;
31126;SDS011;17775;57.948;12.514;2022-10-01T01:55:07;3.47;;;2.67;;
31126;SDS011;17775;57.948;12.514;2022-10-01T01:57:41;4.53;;;2.50;;
31126;SDS011;17775;57.948;12.514;2022-10-01T02:00:08;7.45;;;3.10;;
31126;SDS011;17775;57.948;12.514;2022-10-01T02:02:38;4.20;;;3.00;;
31126;SDS011;17775;57.948;12.514;2022-10-01T02:17:58;6.95;;;3.70;;
31126;SDS011;17775;57.948;12.514;2022-10-01T02:20:49;13.18;;;4.82;;
31126;SDS011;17775;57.948;12.514;2022-10-01T02:23:19;8.30;;;4.93;;
31126;SDS011;17775;57.948;12.514;2022-10-01T02:25:50;11.07;;;5.70;;
31126;SDS011;17775;57.948;12.514;2022-10-01T02:28:21;9.90;;;5.30;;
31126;SDS011;17775;57.948;12.514;2022-10-01T02:30:48;9.70;;;5.97;;
31126;SDS011;17775;57.948;12.514;2022-10-01T02:33:17;14.68;;;7.18;;
31126;SDS011;17775;57.948;12.514;2022-10-01T02:35:45;15.57;;;7.50;;
31126;SDS011;17775;57.948;12.514;2022-10-01T02:38:12;14.43;;;8.00;;
31126;SDS011;17775;57.948;12.514;2022-10-01T02:40:41;19.05;;;8.23;;
31126;SDS011;17775;57.948;12.514;2022-10-01T02:43:12;15.57;;;8.88;;
31126;SDS011;17775;57.948;12.514;2022-10-01T02:45:40;16.50;;;8.45;;
31126;SDS011;17775;57.948;12.514;2022-10-01T02:48:09;17.65;;;8.85;;
31126;SDS011;17775;57.948;12.514;2022-10-01T02:53:39;14.85;;;9.48;;
31126;SDS011;17775;57.948;12.514;2022-10-01T02:56:07;17.33;;;9.45;;
31126;SDS011;17775;57.948;12.514;2022-10-01T02:58:34;15.40;;;9.70;;
31126;SDS011;17775;57.948;12.514;2022-10-01T03:01:01;18.98;;;9.73;;
31126;SDS011;17775;57.948;12.514;2022-10-01T03:03:28;19.05;;;10.38;;
31126;SDS011;17775;57.948;12.514;2022-10-01T03:05:56;21.27;;;10.48;;
31126;SDS011;17775;57.948;12.514;2022-10-01T03:08:22;19.38;;;9.40;;
31126;SDS011;17775;57.948;12.514;2022-10-01T03:10:49;19.08;;;10.73;;
31126;SDS011;17775;57.948;12.514;2022-10-01T03:13:15;17.52;;;10.13;;
31126;SDS011;17775;57.948;12.514;2022-10-01T03:15:44;17.08;;;9.77;;
31126;SDS011;17775;57.948;12.514;2022-10-01T03:18:11;19.60;;;10.75;;
31126;SDS011;17775;57.948;12.514;2022-10-01T03:20:37;19.90;;;10.98;;
31126;SDS011;17775;57.948;12.514;2022-10-01T03:23:03;17.08;;;11.63;;
31126;SDS011;17775;57.948;12.514;2022-10-01T03:25:30;21.80;;;10.98;;
31126;SDS011;17775;57.948;12.514;2022-10-01T03:27:56;18.58;;;10.15;;
31126;SDS011;17775;57.948;12.514;2022-10-01T03:30:23;19.63;;;11.15;;
31126;SDS011;17775;57.948;12.514;2022-10-01T03:32:50;21.25;;;10.93;;
31126;SDS011;17775;57.948;12.514;2022-10-01T03:35:16;16.50;;;10.73;;
31126;SDS011;17775;57.948;12.514;2022-10-01T03:37:43;19.77;;;11.15;;
31126;SDS011;17775;57.948;12.514;2022-10-01T03:40:09;18.02;;;10.73;;
31126;SDS011;17775;57.948;12.514;2022-10-01T03:42:36;18.17;;;11.27;;
31126;SDS011;17775;57.948;12.514;2022-10-01T03:45:02;23.38;;;11.25;;
31126;SDS011;17775;57.948;12.514;2022-10-01T03:47:28;21.20;;;11.25;;
31126;SDS011;17775;57.948;12.514;2022-10-01T03:49:55;21.48;;;10.65;;
31126;SDS011;17775;57.948;12.514;2022-10-01T03:52:21;18.17;;;11.05;;
31126;SDS011;17775;57.948;12.514;2022-10-01T03:54:48;23.40;;;11.65;;
31126;SDS011;17775;57.948;12.514;2022-10-01T03:57:14;16.10;;;10.68;;
31126;SDS011;17775;57.948;12.514;2022-10-01T03:59:41;17.73;;;10.57;;
31126;SDS011;17775;57.948;12.514;2022-10-01T04:02:07;20.63;;;11.48;;
31126;SDS011;17775;57.948;12.514;2022-10-01T04:04:34;20.77;;;11.75;;
31126;SDS011;17775;57.948;12.514;2022-10-01T04:07:00;18.90;;;11.25;;
31126;SDS011;17775;57.948;12.514;2022-10-01T04:09:27;17.33;;;10.32;;
31126;SDS011;17775;57.948;12.514;2022-10-01T04:11:56;17.77;;;11.23;;
31126;SDS011;17775;57.948;12.514;2022-10-01T04:14:23;20.50;;;10.73;;
31126;SDS011;17775;57.948;12.514;2022-10-01T04:16:49;17.85;;;10.50;;
31126;SDS011;17775;57.948;12.514;2022-10-01T04:19:17;17.58;;;11.07;;
31126;SDS011;17775;57.948;12.514;2022-10-01T04:21:44;22.92;;;11.25;;
31126;SDS011;17775;57.948;12.514;2022-10-01T04:24:11;17.40;;;11.00;;
31126;SDS011;17775;57.948;12.514;2022-10-01T04:26:37;17.85;;;10.95;;
31126;SDS011;17775;57.948;12.514;2022-10-01T04:29:03;18.48;;;10.88;;
31126;SDS011;17775;57.948;12.514;2022-10-01T04:31:32;18.70;;;10.75;;
31126;SDS011;17775;57.948;12.514;2022-10-01T04:34:01;19.25;;;11.52;;
31126;SDS011;17775;57.948;12.514;2022-10-01T04:36:27;16.15;;;10.57;;
31126;SDS011;17775;57.948;12.514;2022-10-01T04:38:54;20.67;;;10.77;;
31126;SDS011;17775;57.948;12.514;2022-10-01T04:41:27;18.15;;;10.32;;
31126;SDS011;17775;57.948;12.514;2022-10-01T04:43:55;19.88;;;11.98;;
31126;SDS011;17775;57.948;12.514;2022-10-01T04:46:24;18.25;;;10.90;;
31126;SDS011;17775;57.948;12.514;2022-10-01T04:48:50;20.40;;;11.98;;
31126;SDS011;17775;57.948;12.514;2022-10-01T04:51:17;17.20;;;11.05;;
31126;SDS011;17775;57.948;12.514;2022-10-01T04:53:43;17.90;;;11.25;;
31126;SDS011;17775;57.948;12.514;2022-10-01T04:56:10;17.40;;;11.65;;
31126;SDS011;17775;57.948;12.514;2022-10-01T04:58:36;19.92;;;11.82;;
31126;SDS011;17775;57.948;12.514;2022-10-01T05:01:03;17.95;;;11.50;;
31126;SDS011;17775;57.948;12.514;2022-10-01T05:03:30;16.25;;;11.43;;
31126;SDS011;17775;57.948;12.514;2022-10-01T05:05:56;21.23;;;11.68;;
31126;SDS011;17775;57.948;12.514;2022-10-01T05:08:23;19.77;;;11.50;;
31126;SDS011;17775;57.948;12.514;2022-10-01T05:10:49;18.98;;;11.43;;
31126;SDS011;17775;57.948;12.514;2022-10-01T05:13:15;17.05;;;10.35;;
31126;SDS011;17775;57.948;12.514;2022-10-01T05:15:42;20.08;;;11.70;;
31126;SDS011;17775;57.948;12.514;2022-10-01T05:18:09;18.27;;;10.77;;
31126;SDS011;17775;57.948;12.514;2022-10-01T05:20:35;15.13;;;9.73;;
31126;SDS011;17775;57.948;12.514;2022-10-01T05:23:03;17.15;;;10.95;;
31126;SDS011;17775;57.948;12.514;2022-10-01T05:25:29;17.50;;;10.95;;
31126;SDS011;17775;57.948;12.514;2022-10-01T05:27:58;14.95;;;10.48;;
31126;SDS011;17775;57.948;12.514;2022-10-01T05:30:29;17.08;;;10.23;;
31126;SDS011;17775;57.948;12.514;2022-10-01T05:32:56;14.23;;;10.45;;
31126;SDS011;17775;57.948;12.514;2022-10-01T05:35:23;18.75;;;10.85;;
31126;SDS011;17775;57.948;12.514;2022-10-01T05:37:53;13.95;;;9.95;;
31126;SDS011;17775;57.948;12.514;2022-10-01T05:40:20;14.80;;;9.90;;
31126;SDS011;17775;57.948;12.514;2022-10-01T05:42:46;16.42;;;10.38;;
31126;SDS011;17775;57.948;12.514;2022-10-01T05:45:13;18.55;;;10.70;;
31126;SDS011;17775;57.948;12.514;2022-10-01T05:47:39;15.70;;;9.68;;
31126;SDS011;17775;57.948;12.514;2022-10-01T05:50:07;16.23;;;9.50;;
31126;SDS011;17775;57.948;12.514;2022-10-01T05:52:34;15.35;;;10.18;;
31126;SDS011;17775;57.948;12.514;2022-10-01T05:55:00;14.85;;;10.30;;
31126;SDS011;17775;57.948;12.514;2022-10-01T05:57:29;18.98;;;9.88;;
31126;SDS011;17775;57.948;12.514;2022-10-01T05:59:56;16.92;;;9.75;;
31126;SDS011;17775;57.948;12.514;2022-10-01T06:02:23;16.05;;;10.30;;
31126;SDS011;17775;57.948;12.514;2022-10-01T06:04:49;14.48;;;9.82;;
31126;SDS011;17775;57.948;12.514;2022-10-01T06:07:16;16.80;;;11.02;;
31126;SDS011;17775;57.948;12.514;2022-10-01T06:09:42;16.13;;;9.85;;
31126;SDS011;17775;57.948;12.514;2022-10-01T06:12:10;14.07;;;10.00;;
31126;SDS011;17775;57.948;12.514;2022-10-01T06:14:40;15.05;;;10.38;;
31126;SDS011;17775;57.948;12.514;2022-10-01T06:17:07;15.55;;;10.27;;
31126;SDS011;17775;57.948;12.514;2022-10-01T06:19:33;15.10;;;9.70;;
31126;SDS011;17775;57.948;12.514;2022-10-01T06:22:00;15.57;;;10.32;;
31126;SDS011;17775;57.948;12.514;2022-10-01T06:24:26;17.00;;;9.77;;
31126;SDS011;17775;57.948;12.514;2022-10-01T06:26:52;15.70;;;10.57;;
31126;SDS011;17775;57.948;12.514;2022-10-01T06:29:19;14.65;;;9.75;;
31126;SDS011;17775;57.948;12.514;2022-10-01T06:31:45;15.63;;;9.80;;
31126;SDS011;17775;57.948;12.514;2022-10-01T06:34:12;16.25;;;10.23;;
31126;SDS011;17775;57.948;12.514;2022-10-01T06:36:38;14.43;;;10.10;;
31126;SDS011;17775;57.948;12.514;2022-10-01T06:39:05;16.60;;;10.88;;
31126;SDS011;17775;57.948;12.514;2022-10-01T06:41:31;16.38;;;10.75;;
31126;SDS011;17775;57.948;12.514;2022-10-01T06:44:00;14.93;;;9.88;;
31126;SDS011;17775;57.948;12.514;2022-10-01T06:46:26;15.20;;;9.43;;
31126;SDS011;17775;57.948;12.514;2022-10-01T06:48:54;14.25;;;9.68;;
31126;SDS011;17775;57.948;12.514;2022-10-01T06:51:20;15.50;;;11.30;;
31126;SDS011;17775;57.948;12.514;2022-10-01T06:54:06;13.68;;;9.93;;
31126;SDS011;17775;57.948;12.514;2022-10-01T06:56:33;19.45;;;10.30;;
31126;SDS011;17775;57.948;12.514;2022-10-01T06:59:00;15.52;;;9.35;;
31126;SDS011;17775;57.948;12.514;2022-10-01T07:01:27;15.32;;;9.40;;
31126;SDS011;17775;57.948;12.514;2022-10-01T07:03:53;15.52;;;9.20;;
31126;SDS011;17775;57.948;12.514;2022-10-01T07:06:20;15.30;;;10.50;;
31126;SDS011;17775;57.948;12.514;2022-10-01T07:08:49;14.52;;;8.73;;
31126;SDS011;17775;57.948;12.514;2022-10-01T07:11:16;12.38;;;8.82;;
31126;SDS011;17775;57.948;12.514;2022-10-01T07:13:44;16.52;;;9.15;;
31126;SDS011;17775;57.948;12.514;2022-10-01T07:16:10;14.07;;;8.27;;
31126;SDS011;17775;57.948;12.514;2022-10-01T07:18:37;12.68;;;8.68;;
31126;SDS011;17775;57.948;12.514;2022-10-01T07:21:03;16.13;;;9.52;;
31126;SDS011;17775;57.948;12.514;2022-10-01T07:23:30;13.35;;;9.30;;
31126;SDS011;17775;57.948;12.514;2022-10-01T07:25:56;14.85;;;8.55;;
31126;SDS011;17775;57.948;12.514;2022-10-01T07:28:22;13.25;;;8.98;;
31126;SDS011;17775;57.948;12.514;2022-10-01T07:31:01;12.23;;;8.02;;
31126;SDS011;17775;57.948;12.514;2022-10-01T07:33:31;11.52;;;8.23;;
31126;SDS011;17775;57.948;12.514;2022-10-01T07:35:58;12.48;;;8.18;;
31126;SDS011;17775;57.948;12.514;2022-10-01T07:38:25;13.70;;;8.25;;
31126;SDS011;17775;57.948;12.514;2022-10-01T07:40:52;12.50;;;7.72;;
31126;SDS011;17775;57.948;12.514;2022-10-01T07:43:19;12.15;;;8.40;;
31126;SDS011;17775;57.948;12.514;2022-10-01T07:45:46;13.20;;;8.15;;
31126;SDS011;17775;57.948;12.514;2022-10-01T07:48:12;11.13;;;7.32;;
31126;SDS011;17775;57.948;12.514;2022-10-01T07:50:42;10.20;;;6.97;;
31126;SDS011;17775;57.948;12.514;2022-10-01T07:53:10;10.18;;;7.60;;
31126;SDS011;17775;57.948;12.514;2022-10-01T07:55:37;11.32;;;7.57;;
31126;SDS011;17775;57.948;12.514;2022-10-01T07:58:03;10.50;;;6.70;;
31126;SDS011;17775;57.948;12.514;2022-10-01T08:00:30;13.68;;;6.80;;
31126;SDS011;17775;57.948;12.514;2022-10-01T08:02:58;10.75;;;7.25;;
31126;SDS011;17775;57.948;12.514;2022-10-01T08:05:25;10.13;;;7.28;;
31126;SDS011;17775;57.948;12.514;2022-10-01T08:07:59;9.45;;;6.43;;
31126;SDS011;17775;57.948;12.514;2022-10-01T08:10:27;11.10;;;7.30;;
31126;SDS011;17775;57.948;12.514;2022-10-01T08:13:00;9.13;;;6.53;;
31126;SDS011;17775;57.948;12.514;2022-10-01T08:15:29;8.82;;;6.22;;
31126;SDS011;17775;57.948;12.514;2022-10-01T08:17:59;8.15;;;5.80;;
31126;SDS011;17775;57.948;12.514;2022-10-01T08:20:25;10.80;;;6.53;;
31126;SDS011;17775;57.948;12.514;2022-10-01T08:22:51;12.07;;;5.75;;
31126;SDS011;17775;57.948;12.514;2022-10-01T08:25:18;8.63;;;5.35;;
31126;SDS011;17775;57.948;12.514;2022-10-01T08:27:44;10.90;;;6.00;;
31126;SDS011;17775;57.948;12.514;2022-10-01T08:30:11;8.95;;;6.05;;
31126;SDS011;17775;57.948;12.514;2022-10-01T08:32:37;8.35;;;5.68;;
31126;SDS011;17775;57.948;12.514;2022-10-01T08:35:05;7.07;;;5.00;;
31126;SDS011;17775;57.948;12.514;2022-10-01T08:37:31;8.35;;;5.55;;
31126;SDS011;17775;57.948;12.514;2022-10-01T08:39:58;7.85;;;4.82;;
31126;SDS011;17775;57.948;12.514;2022-10-01T08:42:31;11.07;;;5.75;;
31126;SDS011;17775;57.948;12.514;2022-10-01T08:45:03;9.57;;;5.50;;
31126;SDS011;17775;57.948;12.514;2022-10-01T08:47:32;7.22;;;4.65;;
31126;SDS011;17775;57.948;12.514;2022-10-01T08:50:43;9.57;;;5.10;;
31126;SDS011;17775;57.948;12.514;2022-10-01T08:52:51;6.82;;;4.82;;
31126;SDS011;17775;57.948;12.514;2022-10-01T08:55:19;6.95;;;5.10;;
31126;SDS011;17775;57.948;12.514;2022-10-01T08:57:53;5.85;;;4.53;;
31126;SDS011;17775;57.948;12.514;2022-10-01T09:00:21;8.70;;;5.00;;
31126;SDS011;17775;57.948;12.514;2022-10-01T09:02:48;6.35;;;4.88;;
31126;SDS011;17775;57.948;12.514;2022-10-01T09:05:23;6.70;;;5.13;;
31126;SDS011;17775;57.948;12.514;2022-10-01T09:15:44;6.57;;;4.60;;
31126;SDS011;17775;57.948;12.514;2022-10-01T09:20:42;7.25;;;4.72;;
31126;SDS011;17775;57.948;12.514;2022-10-01T09:25:49;7.53;;;4.57;;
31126;SDS011;17775;57.948;12.514;2022-10-01T09:28:37;7.43;;;4.25;;
31126;SDS011;17775;57.948;12.514;2022-10-01T09:31:07;7.95;;;4.38;;
31126;SDS011;17775;57.948;12.514;2022-10-01T09:33:41;6.10;;;4.55;;
31126;SDS011;17775;57.948;12.514;2022-10-01T09:38:38;5.97;;;4.20;;
31126;SDS011;17775;57.948;12.514;2022-10-01T09:41:06;8.50;;;4.22;;
31126;SDS011;17775;57.948;12.514;2022-10-01T09:43:33;8.60;;;4.45;;
31126;SDS011;17775;57.948;12.514;2022-10-01T09:46:02;7.18;;;4.32;;
31126;SDS011;17775;57.948;12.514;2022-10-01T09:51:09;8.27;;;4.45;;
31126;SDS011;17775;57.948;12.514;2022-10-01T09:53:40;6.40;;;3.85;;
31126;SDS011;17775;57.948;12.514;2022-10-01T09:56:13;5.90;;;4.55;;
31126;SDS011;17775;57.948;12.514;2022-10-01T09:58:41;5.72;;;3.75;;
31126;SDS011;17775;57.948;12.514;2022-10-01T10:01:16;7.00;;;4.45;;
31126;SDS011;17775;57.948;12.514;2022-10-01T10:03:51;10.25;;;4.82;;
31126;SDS011;17775;57.948;12.514;2022-10-01T10:06:20;7.57;;;3.95;;
31126;SDS011;17775;57.948;12.514;2022-10-01T10:11:19;3.75;;;2.95;;
31126;SDS011;17775;57.948;12.514;2022-10-01T10:13:50;5.22;;;3.50;;
31126;SDS011;17775;57.948;12.514;2022-10-01T10:16:18;6.47;;;3.45;;
31126;SDS011;17775;57.948;12.514;2022-10-01T10:18:50;3.58;;;2.97;;
31126;SDS011;17775;57.948;12.514;2022-10-01T10:21:22;4.55;;;3.03;;
31126;SDS011;17775;57.948;12.514;2022-10-01T10:23:51;3.78;;;2.75;;
31126;SDS011;17775;57.948;12.514;2022-10-01T10:26:19;6.43;;;2.55;;
31126;SDS011;17775;57.948;12.514;2022-10-01T10:28:46;3.63;;;2.70;;
31126;SDS011;17775;57.948;12.514;2022-10-01T10:31:20;4.13;;;2.65;;
31126;SDS011;17775;57.948;12.514;2022-10-01T10:36:17;3.00;;;2.30;;
31126;SDS011;17775;57.948;12.514;2022-10-01T10:38:48;4.70;;;3.20;;
31126;SDS011;17775;57.948;12.514;2022-10-01T10:41:15;5.25;;;2.63;;
31126;SDS011;17775;57.948;12.514;2022-10-01T10:43:44;5.63;;;2.67;;
31126;SDS011;17775;57.948;12.514;2022-10-01T10:46:47;4.97;;;2.70;;
31126;SDS011;17775;57.948;12.514;2022-10-01T10:49:15;5.40;;;2.78;;
31126;SDS011;17775;57.948;12.514;2022-10-01T10:51:47;5.57;;;2.45;;
31126;SDS011;17775;57.948;12.514;2022-10-01T10:54:21;4.35;;;2.38;;
31126;SDS011;17775;57.948;12.514;2022-10-01T10:56:55;5.20;;;2.53;;
31126;SDS011;17775;57.948;12.514;2022-10-01T10:59:24;5.20;;;2.28;;
31126;SDS011;17775;57.948;12.514;2022-10-01T11:01:50;4.30;;;2.55;;
31126;SDS011;17775;57.948;12.514;2022-10-01T11:04:24;5.05;;;2.45;;
31126;SDS011;17775;57.948;12.514;2022-10-01T11:06:58;5.18;;;2.47;;
31126;SDS011;17775;57.948;12.514;2022-10-01T11:09:29;6.10;;;2.67;;
31126;SDS011;17775;57.948;12.514;2022-10-01T11:12:09;4.57;;;2.42;;
31126;SDS011;17775;57.948;12.514;2022-10-01T11:27:16;8.60;;;2.97;;
31126;SDS011;17775;57.948;12.514;2022-10-01T11:30:00;5.22;;;2.40;;
31126;SDS011;17775;57.948;12.514;2022-10-01T11:37:36;3.78;;;2.00;;
31126;SDS011;17775;57.948;12.514;2022-10-01T11:40:20;6.70;;;2.30;;
31126;SDS011;17775;57.948;12.514;2022-10-01T11:42:50;5.00;;;2.30;;
31126;SDS011;17775;57.948;12.514;2022-10-01T11:45:23;5.43;;;2.20;;
31126;SDS011;17775;57.948;12.514;2022-10-01T11:47:53;3.90;;;2.20;;
31126;SDS011;17775;57.948;12.514;2022-10-01T11:50:21;3.45;;;2.13;;
31126;SDS011;17775;57.948;12.514;2022-10-01T11:52:57;4.05;;;2.10;;
31126;SDS011;17775;57.948;12.514;2022-10-01T11:55:26;3.22;;;2.00;;
31126;SDS011;17775;57.948;12.514;2022-10-01T12:01:23;3.53;;;2.13;;
31126;SDS011;17775;57.948;12.514;2022-10-01T12:06:18;3.47;;;2.00;;
31126;SDS011;17775;57.948;12.514;2022-10-01T12:08:56;2.40;;;1.92;;
31126;SDS011;17775;57.948;12.514;2022-10-01T12:12:10;2.67;;;1.80;;
31126;SDS011;17775;57.948;12.514;2022-10-01T12:14:21;4.65;;;2.03;;
31126;SDS011;17775;57.948;12.514;2022-10-01T12:16:53;3.83;;;1.95;;
31126;SDS011;17775;57.948;12.514;2022-10-01T12:19:22;3.88;;;1.85;;
31126;SDS011;17775;57.948;12.514;2022-10-01T12:21:52;4.63;;;2.03;;
31126;SDS011;17775;57.948;12.514;2022-10-01T12:24:28;3.20;;;2.03;;
31126;SDS011;17775;57.948;12.514;2022-10-01T12:29:29;4.97;;;2.05;;
31126;SDS011;17775;57.948;12.514;2022-10-01T12:45:21;2.78;;;1.90;;
31126;SDS011;17775;57.948;12.514;2022-10-01T12:55:39;4.13;;;2.03;;
31126;SDS011;17775;57.948;12.514;2022-10-01T12:58:18;2.70;;;1.83;;
31126;SDS011;17775;57.948;12.514;2022-10-01T13:00:50;3.03;;;1.70;;
31126;SDS011;17775;57.948;12.514;2022-10-01T13:04:06;2.42;;;2.00;;
31126;SDS011;17775;57.948;12.514;2022-10-01T13:13:34;4.13;;;1.95;;
31126;SDS011;17775;57.948;12.514;2022-10-01T13:18:38;3.90;;;2.03;;
31126;SDS011;17775;57.948;12.514;2022-10-01T13:23:57;3.45;;;2.00;;
31126;SDS011;17775;57.948;12.514;2022-10-01T13:26:34;3.85;;;2.28;;
31126;SDS011;17775;57.948;12.514;2022-10-01T13:32:31;5.75;;;2.30;;
31126;SDS011;17775;57.948;12.514;2022-10-01T13:37:14;3.70;;;2.28;;
31126;SDS011;17775;57.948;12.514;2022-10-01T13:39:40;4.80;;;2.25;;
31126;SDS011;17775;57.948;12.514;2022-10-01T13:42:12;5.20;;;2.10;;
31126;SDS011;17775;57.948;12.514;2022-10-01T13:44:40;3.72;;;2.20;;
31126;SDS011;17775;57.948;12.514;2022-10-01T13:47:06;4.65;;;2.97;;
31126;SDS011;17775;57.948;12.514;2022-10-01T13:49:35;8.02;;;3.28;;
31126;SDS011;17775;57.948;12.514;2022-10-01T13:52:02;4.55;;;2.53;;
31126;SDS011;17775;57.948;12.514;2022-10-01T13:54:37;5.43;;;2.67;;
31126;SDS011;17775;57.948;12.514;2022-10-01T13:57:09;5.60;;;2.67;;
31126;SDS011;17775;57.948;12.514;2022-10-01T13:59:35;4.47;;;2.35;;
31126;SDS011;17775;57.948;12.514;2022-10-01T14:02:18;5.70;;;2.92;;
31126;SDS011;17775;57.948;12.514;2022-10-01T14:04:49;5.47;;;2.70;;
31126;SDS011;17775;57.948;12.514;2022-10-01T14:07:17;3.25;;;2.42;;
31126;SDS011;17775;57.948;12.514;2022-10-01T14:12:15;6.93;;;3.03;;
31126;SDS011;17775;57.948;12.514;2022-10-01T14:15:11;3.97;;;2.58;;
31126;SDS011;17775;57.948;12.514;2022-10-01T14:18:00;3.47;;;2.15;;
31126;SDS011;17775;57.948;12.514;2022-10-01T14:25:28;5.07;;;2.80;;
31126;SDS011;17775;57.948;12.514;2022-10-01T14:28:16;4.97;;;3.03;;
31126;SDS011;17775;57.948;12.514;2022-10-01T14:38:12;5.00;;;2.55;;
31126;SDS011;17775;57.948;12.514;2022-10-01T14:40:40;7.45;;;3.20;;
31126;SDS011;17775;57.948;12.514;2022-10-01T14:43:15;3.80;;;2.60;;
31126;SDS011;17775;57.948;12.514;2022-10-01T14:45:52;5.88;;;3.00;;
31126;SDS011;17775;57.948;12.514;2022-10-01T14:48:19;4.63;;;3.25;;
31126;SDS011;17775;57.948;12.514;2022-10-01T14:50:46;3.65;;;2.83;;
31126;SDS011;17775;57.948;12.514;2022-10-01T14:53:15;4.70;;;3.13;;
31126;SDS011;17775;57.948;12.514;2022-10-01T14:55:42;6.43;;;2.80;;
31126;SDS011;17775;57.948;12.514;2022-10-01T14:58:10;3.67;;;2.38;;
31126;SDS011;17775;57.948;12.514;2022-10-01T15:00:46;6.60;;;2.97;;
31126;SDS011;17775;57.948;12.514;2022-10-01T15:03:14;5.18;;;3.67;;
31126;SDS011;17775;57.948;12.514;2022-10-01T15:05:41;4.45;;;3.28;;
31126;SDS011;17775;57.948;12.514;2022-10-01T15:08:12;5.43;;;2.92;;
31126;SDS011;17775;57.948;12.514;2022-10-01T15:10:39;9.57;;;5.68;;
31126;SDS011;17775;57.948;12.514;2022-10-01T15:13:06;5.60;;;3.80;;
31126;SDS011;17775;57.948;12.514;2022-10-01T15:15:33;4.78;;;2.42;;
31126;SDS011;17775;57.948;12.514;2022-10-01T15:18:04;5.55;;;2.30;;
31126;SDS011;17775;57.948;12.514;2022-10-01T15:20:30;4.28;;;2.60;;
31126;SDS011;17775;57.948;12.514;2022-10-01T15:22:57;3.20;;;2.13;;
31126;SDS011;17775;57.948;12.514;2022-10-01T15:25:27;4.82;;;2.60;;
31126;SDS011;17775;57.948;12.514;2022-10-01T15:27:54;3.40;;;2.22;;
31126;SDS011;17775;57.948;12.514;2022-10-01T15:30:23;3.35;;;2.10;;
31126;SDS011;17775;57.948;12.514;2022-10-01T15:32:50;4.10;;;2.55;;
31126;SDS011;17775;57.948;12.514;2022-10-01T15:35:17;4.45;;;2.00;;
31126;SDS011;17775;57.948;12.514;2022-10-01T15:37:47;3.70;;;2.33;;
31126;SDS011;17775;57.948;12.514;2022-10-01T15:40:33;7.13;;;2.40;;
31126;SDS011;17775;57.948;12.514;2022-10-01T15:45:33;7.07;;;3.88;;
31126;SDS011;17775;57.948;12.514;2022-10-01T15:48:00;10.70;;;5.07;;
31126;SDS011;17775;57.948;12.514;2022-10-01T15:50:27;19.08;;;8.80;;
31126;SDS011;17775;57.948;12.514;2022-10-01T15:55:46;5.22;;;2.75;;
31126;SDS011;17775;57.948;12.514;2022-10-01T15:58:25;5.13;;;2.97;;
31126;SDS011;17775;57.948;12.514;2022-10-01T16:05:55;6.68;;;3.53;;
31126;SDS011;17775;57.948;12.514;2022-10-01T16:08:23;12.68;;;5.63;;
31126;SDS011;17775;57.948;12.514;2022-10-01T16:11:07;5.80;;;3.65;;
31126;SDS011;17775;57.948;12.514;2022-10-01T16:13:37;4.05;;;2.85;;
31126;SDS011;17775;57.948;12.514;2022-10-01T16:16:05;3.83;;;2.72;;
31126;SDS011;17775;57.948;12.514;2022-10-01T16:18:31;6.28;;;3.35;;
31126;SDS011;17775;57.948;12.514;2022-10-01T16:20:59;19.02;;;7.97;;
31126;SDS011;17775;57.948;12.514;2022-10-01T16:23:36;23.52;;;9.63;;
31126;SDS011;17775;57.948;12.514;2022-10-01T16:26:26;55.50;;;23.00;;
31126;SDS011;17775;57.948;12.514;2022-10-01T16:28:55;84.63;;;37.70;;
31126;SDS011;17775;57.948;12.514;2022-10-01T16:31:23;23.00;;;13.85;;
31126;SDS011;17775;57.948;12.514;2022-10-01T16:33:50;25.38;;;19.45;;
31126;SDS011;17775;57.948;12.514;2022-10-01T16:36:17;9.90;;;7.65;;
31126;SDS011;17775;57.948;12.514;2022-10-01T16:38:49;20.08;;;15.75;;
31126;SDS011;17775;57.948;12.514;2022-10-01T16:41:23;6.72;;;4.35;;
31126;SDS011;17775;57.948;12.514;2022-10-01T16:43:50;10.60;;;6.53;;
31126;SDS011;17775;57.948;12.514;2022-10-01T16:46:17;4.93;;;3.92;;
31126;SDS011;17775;57.948;12.514;2022-10-01T16:48:44;4.57;;;2.95;;
31126;SDS011;17775;57.948;12.514;2022-10-01T16:51:12;4.72;;;3.97;;
31126;SDS011;17775;57.948;12.514;2022-10-01T16:53:38;8.55;;;4.78;;
31126;SDS011;17775;57.948;12.514;2022-10-01T16:56:08;9.50;;;6.38;;
31126;SDS011;17775;57.948;12.514;2022-10-01T16:58:39;7.25;;;3.90;;
31126;SDS011;17775;57.948;12.514;2022-10-01T17:01:06;27.08;;;15.23;;